Kalamazoo METAR

KAZO 270053Z 18015G22KT 10SM CLR 22/14 A2975 RMK AO2 SLP071 T02170139

Kalamazoo TAF

TAF KAZO 261752Z 2618/2718 20012G20KT P6SM SCT250 FM270600 20014KT P6SM BKN200 WS020/23040KT FM271100 21012KT P6SM BKN050 FM271300 21012KT P6SM OVC025